createdAt,value
2023-03-01T00:01:31.679Z,11.23
2023-03-01T00:04:00.551Z,8.77
2023-03-01T00:06:29.021Z,9.68
2023-03-01T00:08:57.310Z,7.75
2023-03-01T00:11:28.144Z,8.18
2023-03-01T00:13:58.579Z,8.60
2023-03-01T00:16:30.621Z,7.45
2023-03-01T00:18:58.605Z,8.68
2023-03-01T00:21:28.065Z,9.00
2023-03-01T00:23:56.704Z,8.88
2023-03-01T00:26:26.957Z,10.20
2023-03-01T00:28:58.868Z,9.10
2023-03-01T00:31:30.423Z,10.18
2023-03-01T00:34:02.596Z,10.27
2023-03-01T00:36:34.587Z,9.65
2023-03-01T00:39:05.923Z,8.95
2023-03-01T00:41:35.574Z,9.90
2023-03-01T00:44:04.363Z,9.00
2023-03-01T00:46:32.188Z,9.23
2023-03-01T00:49:03.068Z,8.63
2023-03-01T00:51:31.251Z,10.68
2023-03-01T00:54:01.621Z,8.65
2023-03-01T00:56:31.265Z,8.88
2023-03-01T00:58:59.689Z,8.38
2023-03-01T01:01:30.693Z,8.95
2023-03-01T01:04:01.425Z,9.82
2023-03-01T01:06:32.775Z,8.90
2023-03-01T01:09:01.206Z,8.93
2023-03-01T01:11:30.596Z,12.45
2023-03-01T01:13:59.582Z,12.25
2023-03-01T01:16:29.840Z,10.95
2023-03-01T01:18:57.748Z,10.23
2023-03-01T01:21:28.031Z,10.57
2023-03-01T01:23:55.825Z,10.38
2023-03-01T01:26:30.129Z,11.18
2023-03-01T01:28:58.869Z,10.90
2023-03-01T01:31:29.138Z,11.20
2023-03-01T01:34:01.404Z,11.57
2023-03-01T01:36:30.265Z,10.23
2023-03-01T01:38:59.241Z,10.85
2023-03-01T01:41:29.434Z,11.85
2023-03-01T01:44:25.986Z,74.40
2023-03-01T01:47:03.041Z,61.10
2023-03-01T01:49:49.525Z,34.60
2023-03-01T01:52:26.575Z,54.47
2023-03-01T01:55:11.757Z,21.42
2023-03-01T01:57:41.527Z,19.88
2023-03-01T02:00:15.693Z,14.35
2023-03-01T02:02:46.912Z,18.02
2023-03-01T02:05:23.706Z,14.00
2023-03-01T02:07:52.492Z,14.55
2023-03-01T02:10:24.312Z,12.05
2023-03-01T02:12:53.482Z,11.82
2023-03-01T02:15:24.995Z,12.88
2023-03-01T02:17:54.611Z,13.93
2023-03-01T02:20:48.338Z,15.75
2023-03-01T02:23:16.175Z,16.45
2023-03-01T02:25:56.834Z,20.20
2023-03-01T02:28:35.058Z,19.75
2023-03-01T02:31:26.871Z,19.77
2023-03-01T02:33:56.463Z,18.85
2023-03-01T02:36:29.647Z,19.42
2023-03-01T02:39:01.007Z,20.15
2023-03-01T02:41:33.541Z,20.35
2023-03-01T02:44:01.555Z,18.10
2023-03-01T02:46:31.010Z,18.73
2023-03-01T02:49:00.222Z,17.38
2023-03-01T02:51:49.775Z,18.38
2023-03-01T02:54:30.440Z,17.20
2023-03-01T02:56:59.340Z,16.92
2023-03-01T02:59:32.476Z,16.80
2023-03-01T03:02:02.204Z,17.25
2023-03-01T03:04:29.817Z,17.65
2023-03-01T03:06:58.385Z,17.77
2023-03-01T03:09:27.147Z,16.85
2023-03-01T03:11:54.727Z,16.50
2023-03-01T03:14:24.606Z,17.70
2023-03-01T03:16:52.267Z,17.92
2023-03-01T03:19:21.447Z,18.27
2023-03-01T03:21:49.080Z,17.40
2023-03-01T03:24:16.782Z,17.75
2023-03-01T03:26:44.778Z,21.90
2023-03-01T03:29:12.802Z,22.55
2023-03-01T03:31:40.321Z,20.75
2023-03-01T03:34:08.198Z,19.38
2023-03-01T03:36:35.792Z,19.05
2023-03-01T03:39:03.520Z,19.83
2023-03-01T03:41:31.909Z,19.67
2023-03-01T03:43:59.562Z,19.83
2023-03-01T03:46:27.608Z,18.45
2023-03-01T03:48:55.103Z,21.52
2023-03-01T03:51:23.840Z,18.75
2023-03-01T03:53:51.782Z,21.83
2023-03-01T03:56:19.933Z,19.75
2023-03-01T03:58:47.448Z,21.15
2023-03-01T04:01:15.046Z,21.33
2023-03-01T04:03:47.590Z,20.73
2023-03-01T04:06:15.770Z,21.35
2023-03-01T04:08:44.176Z,20.20
2023-03-01T04:11:28.381Z,20.38
2023-03-01T04:13:58.790Z,20.92
2023-03-01T04:16:27.632Z,20.92
2023-03-01T04:18:55.784Z,20.00
2023-03-01T04:21:24.052Z,20.30
2023-03-01T04:23:53.653Z,20.25
2023-03-01T04:26:21.298Z,19.30
2023-03-01T04:28:51.378Z,20.33
2023-03-01T04:31:22.246Z,19.98
2023-03-01T04:33:53.395Z,19.95
2023-03-01T04:36:24.583Z,19.85
2023-03-01T04:38:53.133Z,20.17
2023-03-01T04:41:23.042Z,19.42
2023-03-01T04:43:51.509Z,19.15
2023-03-01T04:46:21.697Z,17.45
2023-03-01T04:48:50.418Z,18.30
2023-03-01T04:51:19.383Z,17.48
2023-03-01T04:53:47.411Z,17.35
2023-03-01T04:56:16.170Z,16.15
2023-03-01T04:58:45.169Z,18.15
2023-03-01T05:01:17.685Z,20.20
2023-03-01T05:03:48.341Z,19.92
2023-03-01T05:06:17.837Z,18.35
2023-03-01T05:08:46.059Z,17.42
2023-03-01T05:11:14.386Z,18.23
2023-03-01T05:13:42.916Z,18.48
2023-03-01T05:16:12.659Z,17.23
2023-03-01T05:18:41.907Z,17.58
2023-03-01T05:21:12.628Z,17.17
2023-03-01T05:23:40.736Z,19.35
2023-03-01T05:26:22.306Z,17.58
2023-03-01T05:29:00.014Z,18.08
2023-03-01T05:31:28.620Z,19.05
2023-03-01T05:33:56.782Z,19.17
2023-03-01T05:36:24.301Z,18.90
2023-03-01T05:38:52.914Z,18.10
2023-03-01T05:41:20.415Z,20.08
2023-03-01T05:43:48.339Z,19.50
2023-03-01T05:46:16.503Z,20.23
2023-03-01T05:48:44.804Z,18.45
2023-03-01T05:51:13.164Z,19.38
2023-03-01T05:53:41.545Z,18.77
2023-03-01T05:56:09.235Z,19.70
2023-03-01T05:58:36.816Z,20.83
2023-03-01T06:01:04.501Z,20.40
2023-03-01T06:03:32.111Z,20.90
2023-03-01T06:06:00.186Z,20.90
2023-03-01T06:08:28.664Z,20.48
2023-03-01T06:10:56.143Z,19.95
2023-03-01T06:13:24.701Z,20.63
2023-03-01T06:15:53.093Z,22.17
2023-03-01T06:18:20.821Z,20.88
2023-03-01T06:20:57.369Z,23.77
2023-03-01T06:23:25.867Z,22.85
2023-03-01T06:25:53.490Z,24.83
2023-03-01T06:28:21.497Z,23.80
2023-03-01T06:30:50.805Z,24.30
2023-03-01T06:33:21.056Z,24.05
2023-03-01T06:35:49.524Z,22.17
2023-03-01T06:38:19.964Z,21.85
2023-03-01T06:40:54.236Z,22.10
2023-03-01T06:43:22.669Z,19.77
2023-03-01T06:45:50.702Z,23.85
2023-03-01T06:48:18.917Z,21.00
2023-03-01T06:50:46.506Z,20.98
2023-03-01T06:53:15.143Z,21.25
2023-03-01T06:55:42.750Z,21.38
2023-03-01T06:58:11.649Z,22.80
2023-03-01T07:00:41.873Z,23.60
2023-03-01T07:03:09.716Z,23.65
2023-03-01T07:05:37.807Z,23.23
2023-03-01T07:08:05.940Z,22.73
2023-03-01T07:10:33.819Z,24.92
2023-03-01T07:13:01.408Z,23.45
2023-03-01T07:15:29.942Z,24.05
2023-03-01T07:17:58.534Z,23.17
2023-03-01T07:20:26.731Z,24.23
2023-03-01T07:22:57.398Z,24.27
2023-03-01T07:25:25.767Z,24.98
2023-03-01T07:27:54.215Z,24.20
2023-03-01T07:30:22.428Z,22.88
2023-03-01T07:32:50.757Z,25.17
2023-03-01T07:35:18.450Z,25.13
2023-03-01T07:37:46.037Z,25.05
2023-03-01T07:40:14.263Z,25.15
2023-03-01T07:42:42.147Z,23.45
2023-03-01T07:45:10.115Z,25.60
2023-03-01T07:47:38.613Z,22.85
2023-03-01T07:50:06.598Z,24.90
2023-03-01T07:52:34.087Z,23.38
2023-03-01T07:55:01.677Z,23.10
2023-03-01T07:57:29.763Z,24.10
2023-03-01T07:59:57.808Z,22.13
2023-03-01T08:02:25.483Z,22.77
2023-03-01T08:04:54.110Z,21.73
2023-03-01T08:07:21.657Z,23.73
2023-03-01T08:09:49.916Z,23.83
2023-03-01T08:12:18.529Z,24.23
2023-03-01T08:14:46.455Z,24.70
2023-03-01T08:17:17.065Z,23.02
2023-03-01T08:19:44.666Z,23.63
2023-03-01T08:22:12.576Z,24.45
2023-03-01T08:24:40.722Z,24.52
2023-03-01T08:27:09.753Z,24.80
2023-03-01T08:29:37.677Z,25.15
2023-03-01T08:32:06.290Z,24.95
2023-03-01T08:34:36.537Z,25.20
2023-03-01T08:37:04.196Z,25.42
2023-03-01T08:39:32.877Z,23.88
2023-03-01T08:42:00.903Z,26.30
2023-03-01T08:44:28.425Z,24.45
2023-03-01T08:46:56.734Z,24.50
2023-03-01T08:49:25.629Z,25.52
2023-03-01T08:51:53.205Z,26.40
2023-03-01T08:54:22.734Z,26.80
2023-03-01T08:56:51.219Z,28.55
2023-03-01T08:59:19.788Z,26.65
2023-03-01T09:01:47.547Z,26.65
2023-03-01T09:04:17.074Z,26.83
2023-03-01T09:06:44.826Z,26.73
2023-03-01T09:09:18.306Z,26.58
2023-03-01T09:11:47.614Z,26.10
2023-03-01T09:14:15.817Z,25.23
2023-03-01T09:16:44.488Z,24.20
2023-03-01T09:19:12.328Z,22.90
2023-03-01T09:21:41.229Z,23.50
2023-03-01T09:24:15.342Z,24.10
2023-03-01T09:29:11.439Z,24.15
2023-03-01T09:31:40.432Z,22.60
2023-03-01T09:34:08.923Z,21.33
2023-03-01T09:36:36.816Z,20.95
2023-03-01T09:39:06.920Z,19.08
2023-03-01T09:41:48.431Z,20.00
2023-03-01T09:44:41.383Z,20.30
2023-03-01T09:47:25.407Z,22.67
2023-03-01T09:50:15.319Z,20.92
2023-03-01T09:52:49.826Z,21.58
2023-03-01T09:55:35.855Z,21.73
2023-03-01T09:58:30.819Z,21.23
2023-03-01T10:01:03.875Z,21.00
2023-03-01T10:04:03.741Z,19.63
2023-03-01T10:06:35.212Z,21.67
2023-03-01T10:09:10.176Z,23.63
2023-03-01T10:11:47.958Z,23.02
2023-03-01T10:14:37.547Z,21.75
2023-03-01T10:17:20.874Z,21.20
2023-03-01T10:19:48.758Z,22.92
2023-03-01T10:22:30.277Z,23.45
2023-03-01T10:25:03.261Z,22.45
2023-03-01T10:27:41.447Z,20.70
2023-03-01T10:30:21.853Z,22.73
2023-03-01T10:32:53.850Z,22.42
2023-03-01T10:35:24.472Z,23.42
2023-03-01T10:38:07.569Z,22.77
2023-03-01T10:40:37.064Z,23.10
2023-03-01T10:43:06.934Z,23.38
2023-03-01T10:45:38.802Z,22.67
2023-03-01T10:48:30.068Z,22.50
2023-03-01T10:51:01.710Z,22.42
2023-03-01T10:53:39.199Z,23.02
2023-03-01T10:56:10.486Z,23.92
2023-03-01T10:58:40.228Z,23.17
2023-03-01T11:01:31.255Z,21.95
2023-03-01T11:04:08.775Z,22.50
2023-03-01T11:06:38.775Z,24.33
2023-03-01T11:09:22.476Z,21.77
2023-03-01T11:11:57.994Z,21.60
2023-03-01T11:14:28.721Z,23.73
2023-03-01T11:17:03.057Z,24.13
2023-03-01T11:19:31.364Z,23.77
2023-03-01T11:22:21.961Z,24.58
2023-03-01T11:25:08.467Z,24.50
2023-03-01T11:27:42.347Z,23.52
2023-03-01T11:30:19.460Z,25.10
2023-03-01T11:32:50.725Z,24.40
2023-03-01T11:35:27.058Z,21.88
2023-03-01T11:38:13.904Z,22.13
2023-03-01T11:40:48.041Z,23.20
2023-03-01T11:43:28.770Z,21.63
2023-03-01T11:46:13.503Z,22.33
2023-03-01T11:49:20.943Z,21.73
2023-03-01T11:52:07.001Z,22.55
2023-03-01T11:54:54.162Z,21.73
2023-03-01T11:57:50.093Z,23.15
2023-03-01T12:00:45.668Z,21.83
2023-03-01T12:03:31.076Z,20.45
2023-03-01T12:06:29.353Z,20.52
2023-03-01T12:09:09.427Z,18.67
2023-03-01T12:11:46.816Z,18.33
2023-03-01T12:14:33.009Z,19.77
2023-03-01T12:17:13.423Z,18.33
2023-03-01T12:20:12.058Z,16.60
2023-03-01T12:22:45.884Z,16.23
2023-03-01T12:25:36.170Z,16.63
2023-03-01T12:28:15.855Z,15.52
2023-03-01T12:31:06.324Z,14.75
2023-03-01T12:33:58.534Z,16.52
2023-03-01T12:36:39.069Z,14.35
2023-03-01T12:39:29.740Z,12.80
2023-03-01T12:42:14.236Z,11.38
2023-03-01T12:44:48.681Z,11.70
2023-03-01T12:47:27.700Z,10.35
2023-03-01T12:49:59.434Z,11.00
2023-03-01T12:52:51.220Z,11.32
2023-03-01T12:55:31.400Z,11.45
2023-03-01T12:58:37.122Z,8.73
2023-03-01T13:01:15.422Z,7.03
2023-03-01T13:03:46.107Z,7.55
2023-03-01T13:06:19.768Z,8.50
2023-03-01T13:08:57.432Z,6.65
2023-03-01T13:11:25.744Z,7.85
2023-03-01T13:13:55.568Z,9.07
2023-03-01T13:16:38.462Z,7.38
2023-03-01T13:19:17.072Z,7.10
2023-03-01T13:21:46.352Z,9.90
2023-03-01T13:24:32.504Z,7.80
2023-03-01T13:27:09.674Z,6.30
2023-03-01T13:29:52.977Z,5.85
2023-03-01T13:32:34.608Z,6.35
2023-03-01T13:35:17.902Z,6.97
2023-03-01T13:37:46.939Z,5.80
2023-03-01T13:40:19.449Z,5.57
2023-03-01T13:43:04.275Z,6.85
2023-03-01T13:45:44.096Z,6.00
2023-03-01T13:48:28.772Z,7.68
2023-03-01T13:51:02.343Z,6.50
2023-03-01T13:53:38.288Z,6.95
2023-03-01T13:56:19.507Z,5.97
2023-03-01T13:59:05.711Z,7.85
2023-03-01T14:01:36.782Z,7.43
2023-03-01T14:04:21.800Z,9.90
2023-03-01T14:06:49.920Z,8.57
2023-03-01T14:09:29.399Z,8.32
2023-03-01T14:12:31.346Z,8.35
2023-03-01T14:15:26.644Z,9.70
2023-03-01T14:18:17.540Z,17.10
2023-03-01T14:20:52.292Z,8.63
2023-03-01T14:23:23.038Z,7.28
2023-03-01T14:25:56.731Z,9.70
2023-03-01T14:28:34.406Z,9.77
2023-03-01T14:31:03.229Z,9.02
2023-03-01T14:33:38.249Z,8.13
2023-03-01T14:36:14.568Z,10.95
2023-03-01T14:38:43.422Z,9.10
2023-03-01T14:41:16.819Z,8.68
2023-03-01T14:43:48.955Z,8.82
2023-03-01T14:46:22.339Z,8.15
2023-03-01T14:48:53.266Z,6.93
2023-03-01T14:51:21.426Z,7.13
2023-03-01T14:53:51.617Z,8.18
2023-03-01T14:56:20.464Z,6.43
2023-03-01T14:58:53.302Z,8.20
2023-03-01T15:01:22.560Z,8.98
2023-03-01T15:03:51.883Z,9.57
2023-03-01T15:06:21.664Z,8.43
2023-03-01T15:08:53.459Z,9.85
2023-03-01T15:11:25.910Z,9.30
2023-03-01T15:13:55.531Z,8.80
2023-03-01T15:16:35.639Z,7.15
2023-03-01T15:19:07.138Z,8.60
2023-03-01T15:21:37.750Z,6.85
2023-03-01T15:24:13.073Z,7.70
2023-03-01T15:26:43.368Z,7.22
2023-03-01T15:29:19.283Z,7.63
2023-03-01T15:32:05.250Z,7.38
2023-03-01T15:34:38.428Z,8.90
2023-03-01T15:37:28.561Z,8.68
2023-03-01T15:39:58.392Z,9.88
2023-03-01T15:42:29.209Z,8.98
2023-03-01T15:45:17.044Z,9.98
2023-03-01T15:47:54.296Z,9.43
2023-03-01T15:50:35.087Z,9.63
2023-03-01T15:53:12.220Z,9.82
2023-03-01T15:55:40.688Z,8.80
2023-03-01T15:58:15.590Z,9.90
2023-03-01T16:00:59.483Z,8.00
2023-03-01T16:03:29.225Z,8.85
2023-03-01T16:05:57.842Z,9.98
2023-03-01T16:08:25.414Z,9.85
2023-03-01T16:10:55.533Z,9.88
2023-03-01T16:13:23.783Z,8.65
2023-03-01T16:15:52.493Z,9.20
2023-03-01T16:18:20.562Z,9.93
2023-03-01T16:20:49.358Z,10.10
2023-03-01T16:23:17.370Z,10.35
2023-03-01T16:25:45.462Z,9.52
2023-03-01T16:28:15.172Z,9.95
2023-03-01T16:30:48.742Z,10.50
2023-03-01T16:33:29.595Z,11.23
2023-03-01T16:36:03.380Z,11.02
2023-03-01T16:38:33.650Z,10.48
2023-03-01T16:41:02.014Z,11.40
2023-03-01T16:43:31.243Z,9.50
2023-03-01T16:45:59.855Z,9.40
2023-03-01T16:48:27.655Z,10.25
2023-03-01T16:51:01.132Z,9.98
2023-03-01T16:53:29.799Z,10.43
2023-03-01T16:55:59.048Z,9.82
2023-03-01T16:58:27.430Z,11.50
2023-03-01T17:00:56.498Z,10.60
2023-03-01T17:03:27.284Z,9.82
2023-03-01T17:05:55.584Z,11.05
2023-03-01T17:08:24.628Z,11.38
2023-03-01T17:10:52.240Z,10.93
2023-03-01T17:13:20.445Z,11.90
2023-03-01T17:15:49.489Z,9.85
2023-03-01T17:18:17.725Z,16.05
2023-03-01T17:20:45.296Z,11.15
2023-03-01T17:23:13.962Z,12.40
2023-03-01T17:25:45.687Z,11.60
2023-03-01T17:28:14.722Z,12.20
2023-03-01T17:30:45.574Z,10.70
2023-03-01T17:33:15.042Z,12.43
2023-03-01T17:35:46.213Z,13.75
2023-03-01T17:38:18.189Z,19.02
2023-03-01T17:40:47.040Z,16.52
2023-03-01T17:43:17.546Z,15.25
2023-03-01T17:45:48.816Z,14.20
2023-03-01T17:48:17.388Z,15.10
2023-03-01T17:50:45.054Z,14.32
2023-03-01T17:53:12.839Z,11.93
2023-03-01T17:55:43.697Z,12.02
2023-03-01T17:58:13.878Z,11.65
2023-03-01T18:00:42.662Z,11.23
2023-03-01T18:03:11.286Z,11.48
2023-03-01T18:05:39.839Z,11.57
2023-03-01T18:08:08.269Z,11.50
2023-03-01T18:10:37.552Z,10.60
2023-03-01T18:13:06.645Z,12.27
2023-03-01T18:15:34.310Z,11.20
2023-03-01T18:18:02.553Z,11.95
2023-03-01T18:20:32.822Z,11.07
2023-03-01T18:23:00.958Z,10.93
2023-03-01T18:25:29.387Z,10.20
2023-03-01T18:27:57.006Z,10.93
2023-03-01T18:30:25.139Z,10.20
2023-03-01T18:32:56.359Z,10.75
2023-03-01T18:35:24.918Z,11.70
2023-03-01T18:37:52.708Z,11.70
2023-03-01T18:40:20.908Z,11.48
2023-03-01T18:42:48.446Z,12.32
2023-03-01T18:45:18.020Z,11.95
2023-03-01T18:47:45.708Z,12.20
2023-03-01T18:50:13.256Z,10.70
2023-03-01T18:52:41.786Z,9.77
2023-03-01T18:55:09.930Z,10.57
2023-03-01T18:57:38.303Z,10.98
2023-03-01T19:00:07.113Z,11.43
2023-03-01T19:02:35.192Z,11.05
2023-03-01T19:05:03.935Z,13.10
2023-03-01T19:07:31.976Z,14.18
2023-03-01T19:10:00.591Z,13.63
2023-03-01T19:12:28.587Z,11.20
2023-03-01T19:14:56.448Z,12.73
2023-03-01T19:17:30.519Z,11.68
2023-03-01T19:19:59.091Z,13.90
2023-03-01T19:22:28.464Z,13.90
2023-03-01T19:24:56.052Z,13.32
2023-03-01T19:27:23.684Z,13.10
2023-03-01T19:29:51.419Z,11.98
2023-03-01T19:32:19.490Z,11.90
2023-03-01T19:34:47.549Z,12.38
2023-03-01T19:37:15.622Z,11.63
2023-03-01T19:39:44.050Z,9.00
2023-03-01T19:42:12.260Z,10.23
2023-03-01T19:44:41.523Z,10.70
2023-03-01T19:47:09.959Z,11.02
2023-03-01T19:49:38.251Z,8.88
2023-03-01T19:52:06.464Z,9.73
2023-03-01T19:54:35.089Z,9.07
2023-03-01T19:57:03.196Z,7.57
2023-03-01T19:59:30.844Z,6.55
2023-03-01T20:01:58.859Z,6.18
2023-03-01T20:04:27.204Z,5.97
2023-03-01T20:06:55.475Z,5.47
2023-03-01T20:09:23.453Z,7.13
2023-03-01T20:11:51.698Z,6.05
2023-03-01T20:14:23.577Z,5.90
2023-03-01T20:16:52.483Z,4.82
2023-03-01T20:19:20.145Z,5.65
2023-03-01T20:21:47.895Z,4.85
2023-03-01T20:24:15.888Z,6.82
2023-03-01T20:26:43.903Z,7.50
2023-03-01T20:29:12.773Z,6.40
2023-03-01T20:31:42.656Z,6.93
2023-03-01T20:34:11.044Z,4.55
2023-03-01T20:36:41.069Z,5.65
2023-03-01T20:39:09.812Z,4.53
2023-03-01T20:41:40.026Z,5.28
2023-03-01T20:44:07.874Z,4.43
2023-03-01T20:46:37.349Z,5.95
2023-03-01T20:49:06.414Z,6.50
2023-03-01T20:51:33.959Z,5.35
2023-03-01T20:54:02.208Z,4.53
2023-03-01T20:56:31.152Z,5.20
2023-03-01T20:59:08.175Z,5.88
2023-03-01T21:01:38.850Z,6.70
2023-03-01T21:04:07.620Z,5.53
2023-03-01T21:06:37.928Z,7.20
2023-03-01T21:09:06.111Z,4.93
2023-03-01T21:11:34.228Z,4.82
2023-03-01T21:14:02.386Z,4.68
2023-03-01T21:16:30.875Z,7.70
2023-03-01T21:19:04.571Z,4.53
2023-03-01T21:21:33.230Z,5.70
2023-03-01T21:24:00.957Z,3.92
2023-03-01T21:26:28.435Z,4.60
2023-03-01T21:29:03.742Z,4.13
2023-03-01T21:31:35.383Z,4.68
2023-03-01T21:34:06.189Z,3.83
2023-03-01T21:36:36.077Z,4.63
2023-03-01T21:39:06.410Z,4.53
2023-03-01T21:41:36.468Z,7.00
2023-03-01T21:44:06.757Z,5.45
2023-03-01T21:46:38.485Z,5.60
2023-03-01T21:49:07.640Z,5.97
2023-03-01T21:51:36.676Z,6.55
2023-03-01T21:54:05.762Z,4.60
2023-03-01T21:56:35.478Z,4.05
2023-03-01T21:59:04.090Z,5.03
2023-03-01T22:01:32.389Z,5.65
2023-03-01T22:04:03.225Z,5.07
2023-03-01T22:06:40.713Z,5.38
2023-03-01T22:09:15.879Z,6.53
2023-03-01T22:11:47.588Z,5.35
2023-03-01T22:14:18.006Z,4.63
2023-03-01T22:16:48.209Z,4.72
2023-03-01T22:19:17.861Z,6.25
2023-03-01T22:21:49.785Z,5.35
2023-03-01T22:24:19.468Z,6.05
2023-03-01T22:26:49.316Z,5.35
2023-03-01T22:29:21.378Z,6.03
2023-03-01T22:31:50.569Z,3.30
2023-03-01T22:34:19.384Z,4.50
2023-03-01T22:36:48.257Z,5.22
2023-03-01T22:39:20.221Z,4.95
2023-03-01T22:41:49.704Z,6.15
2023-03-01T22:44:20.288Z,3.50
2023-03-01T22:46:48.907Z,5.13
2023-03-01T22:49:17.683Z,4.60
2023-03-01T22:51:47.589Z,3.80
2023-03-01T22:54:16.620Z,5.43
2023-03-01T22:56:44.349Z,3.88
2023-03-01T22:59:15.667Z,3.95
2023-03-01T23:01:48.171Z,3.67
2023-03-01T23:04:17.813Z,3.50
2023-03-01T23:06:53.820Z,3.03
2023-03-01T23:09:30.102Z,3.65
2023-03-01T23:12:00.384Z,3.58
2023-03-01T23:14:32.402Z,5.30
2023-03-01T23:17:01.687Z,3.75
2023-03-01T23:19:30.928Z,5.85
2023-03-01T23:21:58.925Z,4.15
2023-03-01T23:24:31.462Z,3.08
2023-03-01T23:27:01.400Z,4.25
2023-03-01T23:29:29.527Z,3.53
2023-03-01T23:32:00.617Z,4.70
2023-03-01T23:34:28.851Z,4.13
2023-03-01T23:36:58.669Z,3.90
2023-03-01T23:39:29.929Z,3.55
2023-03-01T23:41:58.656Z,3.55
2023-03-01T23:44:26.502Z,2.38
2023-03-01T23:46:54.035Z,2.47
2023-03-01T23:49:23.947Z,4.07
2023-03-01T23:51:52.682Z,3.40
2023-03-01T23:54:23.806Z,2.55
2023-03-01T23:56:52.115Z,3.28
2023-03-01T23:59:23.026Z,3.22
